Hachinohe Air Base, Japan

5:58 PM JST on October 01, 2014 (GMT +0900)
Hachinohe Aero | Change Station
CLOSE
Current Station
Airport
Location: Hachinohe AB,
Elevation: 161 ft
Nearby Weather Stations

Elev 161 ft 40.55 °N, 141.47 °E | Updated 1 day ago

Clear
Clear
55 °F
Feels Like 55 °F
N
6
Wind Variable Wind from NNW
Gusts mph

Today
High -- | Low -- °F
--% Chance of Precip.
Yesterday
High -- | Low -- °F
Precip. -- in
5:29 AM 5:17 PM
Waxing Crescent, 45% visible
Pressure 29.77 in
Visibility 6.2 miles
Clouds Scattered Clouds 4000 ft
Dew Point 48 °F
Humidity 74%
Rainfall 0.00 in
Snow Depth Not available.
UV 3 out of 12
Pollen Not available.
Air Quality Not available.
Flu Activity Not available.
SPECI RJSH 300427Z 26017G30KT 220V300 9999 SCT040 22/10 Q1008 RMK 4CU040 A2979

More Conditions Fewer Conditions

Pressure 29.77 in
Visibility 6.2 miles
Clouds Scattered Clouds 4000 ft
Dew Point 48 °F
Humidity 74%
Rainfall 0.00 in
Snow Depth Not available.
UV 3 out of 12
Pollen Not available.
Air Quality Not available.
Flu Activity Not available.
SPECI RJSH 300427Z 26017G30KT 220V300 9999 SCT040 22/10 Q1008 RMK 4CU040 A2979

More Conditions Fewer Conditions

10-Day Weather Forecast

Almanac

Astronomy

Oct. 01, 2014 Rise Set
Actual Time 5:29 AM JST 5:17 PM JST
Civil Twilight 5:02 AM JST 5:44 PM JST
Nautical Twilight 4:31 AM JST 6:16 PM JST
Astronomical Twilight 3:59 AM JST 6:48 PM JST
Moon 11:58 AM JST 10:07 PM JST
Length of Visible Light 12h 41m
Length of Day
11h 47m
Tomorrow will be 2m 40s shorter.
Waxing Crescent, 45% of the Moon is Illuminated
Today
Waxing Crescent
Oct 1
First Quarter
Oct 8
Full
Oct 15
Last Quarter
Oct 23
New

Yesterday's Extremes

Country Highs Country Lows

Community

WunderPhotos

Upload Photos

1,757,902 photos uploaded!

Nearby

Snow Depth

Not available.

Earthquake Activity

City Distance Mag. Time & Date
No recent earthquake activity has been reported nearby.
Minimum magnitude displayed is 2.5.

Coastal Water Temperatures

Place Temperature
No Stations Reporting

Nearby Weather Stations